sensor_id;sensor_type;location;lat;lon;timestamp;temperature;humidity
19968;DHT22;10145;49.152;9.282;2023-07-31T00:00:36;16.60;99.90
19968;DHT22;10145;49.152;9.282;2023-07-31T00:03:01;16.50;99.90
19968;DHT22;10145;49.152;9.282;2023-07-31T00:05:27;16.70;99.90
19968;DHT22;10145;49.152;9.282;2023-07-31T00:07:52;16.70;99.90
19968;DHT22;10145;49.152;9.282;2023-07-31T00:10:19;16.70;99.90
19968;DHT22;10145;49.152;9.282;2023-07-31T00:12:45;16.70;99.90
19968;DHT22;10145;49.152;9.282;2023-07-31T00:15:10;16.60;99.90
19968;DHT22;10145;49.152;9.282;2023-07-31T00:17:37;16.50;99.90
19968;DHT22;10145;49.152;9.282;2023-07-31T00:20:03;16.50;99.90
19968;DHT22;10145;49.152;9.282;2023-07-31T00:22:28;16.60;99.90
19968;DHT22;10145;49.152;9.282;2023-07-31T00:24:54;16.70;99.90
19968;DHT22;10145;49.152;9.282;2023-07-31T00:27:19;16.70;99.90
19968;DHT22;10145;49.152;9.282;2023-07-31T00:29:45;16.60;99.90
19968;DHT22;10145;49.152;9.282;2023-07-31T00:32:10;16.40;99.90
19968;DHT22;10145;49.152;9.282;2023-07-31T00:34:36;16.40;99.90
19968;DHT22;10145;49.152;9.282;2023-07-31T00:37:02;16.40;99.90
19968;DHT22;10145;49.152;9.282;2023-07-31T00:39:29;16.40;99.90
19968;DHT22;10145;49.152;9.282;2023-07-31T00:41:55;16.40;99.90
19968;DHT22;10145;49.152;9.282;2023-07-31T00:44:20;16.50;99.90
19968;DHT22;10145;49.152;9.282;2023-07-31T00:46:46;16.40;99.90
19968;DHT22;10145;49.152;9.282;2023-07-31T00:49:12;16.30;99.90
19968;DHT22;10145;49.152;9.282;2023-07-31T00:51:38;16.20;99.90
19968;DHT22;10145;49.152;9.282;2023-07-31T00:54:03;16.10;99.90
19968;DHT22;10145;49.152;9.282;2023-07-31T00:56:29;16.00;99.90
19968;DHT22;10145;49.152;9.282;2023-07-31T00:58:55;15.80;99.90
19968;DHT22;10145;49.152;9.282;2023-07-31T01:01:21;15.80;99.90
19968;DHT22;10145;49.152;9.282;2023-07-31T01:03:48;15.80;99.90
19968;DHT22;10145;49.152;9.282;2023-07-31T01:06:18;15.80;99.90
19968;DHT22;10145;49.152;9.282;2023-07-31T01:09:11;15.70;99.90
19968;DHT22;10145;49.152;9.282;2023-07-31T01:11:53;15.70;99.90
19968;DHT22;10145;49.152;9.282;2023-07-31T01:14:21;15.70;99.90
19968;DHT22;10145;49.152;9.282;2023-07-31T01:16:47;15.70;99.90
19968;DHT22;10145;49.152;9.282;2023-07-31T01:19:14;15.90;99.90
19968;DHT22;10145;49.152;9.282;2023-07-31T01:27:25;16.00;99.90
19968;DHT22;10145;49.152;9.282;2023-07-31T01:30:03;15.90;99.90
19968;DHT22;10145;49.152;9.282;2023-07-31T01:32:36;15.80;99.90
19968;DHT22;10145;49.152;9.282;2023-07-31T01:35:04;15.70;99.90
19968;DHT22;10145;49.152;9.282;2023-07-31T01:37:30;15.60;99.90
19968;DHT22;10145;49.152;9.282;2023-07-31T01:39:56;15.50;99.90
19968;DHT22;10145;49.152;9.282;2023-07-31T01:42:21;15.40;99.90
19968;DHT22;10145;49.152;9.282;2023-07-31T01:44:47;15.50;99.90
19968;DHT22;10145;49.152;9.282;2023-07-31T01:47:12;15.50;99.90
19968;DHT22;10145;49.152;9.282;2023-07-31T01:49:38;15.50;99.90
19968;DHT22;10145;49.152;9.282;2023-07-31T01:52:03;15.50;99.90
19968;DHT22;10145;49.152;9.282;2023-07-31T01:54:29;15.60;99.90
19968;DHT22;10145;49.152;9.282;2023-07-31T01:56:55;15.50;99.90
19968;DHT22;10145;49.152;9.282;2023-07-31T01:59:20;15.40;99.90
19968;DHT22;10145;49.152;9.282;2023-07-31T02:01:46;15.30;99.90
19968;DHT22;10145;49.152;9.282;2023-07-31T02:04:11;15.20;99.90
19968;DHT22;10145;49.152;9.282;2023-07-31T02:06:37;15.20;99.90
19968;DHT22;10145;49.152;9.282;2023-07-31T02:09:03;15.20;99.90
19968;DHT22;10145;49.152;9.282;2023-07-31T02:11:28;15.20;99.90
19968;DHT22;10145;49.152;9.282;2023-07-31T02:13:54;15.20;99.90
19968;DHT22;10145;49.152;9.282;2023-07-31T02:16:19;15.30;99.90
19968;DHT22;10145;49.152;9.282;2023-07-31T02:18:45;15.30;99.90
19968;DHT22;10145;49.152;9.282;2023-07-31T02:21:11;15.30;99.90
19968;DHT22;10145;49.152;9.282;2023-07-31T02:23:36;15.30;99.90
19968;DHT22;10145;49.152;9.282;2023-07-31T02:26:02;15.40;99.90
19968;DHT22;10145;49.152;9.282;2023-07-31T02:28:28;15.40;99.90
19968;DHT22;10145;49.152;9.282;2023-07-31T02:30:53;15.50;99.90
19968;DHT22;10145;49.152;9.282;2023-07-31T02:33:19;15.50;99.90
19968;DHT22;10145;49.152;9.282;2023-07-31T02:35:44;15.50;99.90
19968;DHT22;10145;49.152;9.282;2023-07-31T02:38:10;15.60;99.90
19968;DHT22;10145;49.152;9.282;2023-07-31T02:40:35;15.60;99.90
19968;DHT22;10145;49.152;9.282;2023-07-31T02:43:01;15.60;99.90
19968;DHT22;10145;49.152;9.282;2023-07-31T02:45:26;15.60;99.90
19968;DHT22;10145;49.152;9.282;2023-07-31T02:47:52;15.60;99.90
19968;DHT22;10145;49.152;9.282;2023-07-31T02:50:17;15.60;99.90
19968;DHT22;10145;49.152;9.282;2023-07-31T02:52:43;15.60;99.90
19968;DHT22;10145;49.152;9.282;2023-07-31T02:55:08;15.70;99.90
19968;DHT22;10145;49.152;9.282;2023-07-31T02:57:34;15.70;99.90
19968;DHT22;10145;49.152;9.282;2023-07-31T02:59:59;15.70;99.90
19968;DHT22;10145;49.152;9.282;2023-07-31T03:02:25;15.70;99.90
19968;DHT22;10145;49.152;9.282;2023-07-31T03:04:51;15.80;99.90
19968;DHT22;10145;49.152;9.282;2023-07-31T03:07:16;15.80;99.90
19968;DHT22;10145;49.152;9.282;2023-07-31T03:09:42;15.90;99.90
19968;DHT22;10145;49.152;9.282;2023-07-31T03:12:07;15.90;99.90
19968;DHT22;10145;49.152;9.282;2023-07-31T03:14:33;15.90;99.90
19968;DHT22;10145;49.152;9.282;2023-07-31T03:16:59;15.80;99.90
19968;DHT22;10145;49.152;9.282;2023-07-31T03:19:25;15.80;99.90
19968;DHT22;10145;49.152;9.282;2023-07-31T03:21:50;15.80;99.90
19968;DHT22;10145;49.152;9.282;2023-07-31T03:24:16;15.70;99.90
19968;DHT22;10145;49.152;9.282;2023-07-31T03:26:41;15.60;99.90
19968;DHT22;10145;49.152;9.282;2023-07-31T03:29:08;15.60;99.90
19968;DHT22;10145;49.152;9.282;2023-07-31T03:31:33;15.60;99.90
19968;DHT22;10145;49.152;9.282;2023-07-31T03:33:59;15.70;99.90
19968;DHT22;10145;49.152;9.282;2023-07-31T03:36:24;15.70;99.90
19968;DHT22;10145;49.152;9.282;2023-07-31T03:38:51;15.70;99.90
19968;DHT22;10145;49.152;9.282;2023-07-31T03:41:17;15.70;99.90
19968;DHT22;10145;49.152;9.282;2023-07-31T03:43:43;15.80;99.90
19968;DHT22;10145;49.152;9.282;2023-07-31T03:46:08;15.80;99.90
19968;DHT22;10145;49.152;9.282;2023-07-31T03:48:34;15.60;99.90
19968;DHT22;10145;49.152;9.282;2023-07-31T03:50:59;15.60;99.90
19968;DHT22;10145;49.152;9.282;2023-07-31T03:53:25;15.50;99.90
19968;DHT22;10145;49.152;9.282;2023-07-31T03:55:50;15.50;99.90
19968;DHT22;10145;49.152;9.282;2023-07-31T03:58:16;15.40;99.90
19968;DHT22;10145;49.152;9.282;2023-07-31T04:00:41;15.50;99.90
19968;DHT22;10145;49.152;9.282;2023-07-31T04:03:07;15.50;99.90
19968;DHT22;10145;49.152;9.282;2023-07-31T04:05:33;15.60;99.90
19968;DHT22;10145;49.152;9.282;2023-07-31T04:07:58;15.50;99.90
19968;DHT22;10145;49.152;9.282;2023-07-31T04:10:24;15.50;99.90
19968;DHT22;10145;49.152;9.282;2023-07-31T04:12:49;15.40;99.90
19968;DHT22;10145;49.152;9.282;2023-07-31T04:15:15;15.40;99.90
19968;DHT22;10145;49.152;9.282;2023-07-31T04:17:40;15.40;99.90
19968;DHT22;10145;49.152;9.282;2023-07-31T04:20:06;15.40;99.90
19968;DHT22;10145;49.152;9.282;2023-07-31T04:22:32;15.30;99.90
19968;DHT22;10145;49.152;9.282;2023-07-31T04:24:58;15.30;99.90
19968;DHT22;10145;49.152;9.282;2023-07-31T04:27:23;15.40;99.90
19968;DHT22;10145;49.152;9.282;2023-07-31T04:29:49;15.50;99.90
19968;DHT22;10145;49.152;9.282;2023-07-31T04:32:14;15.60;99.90
19968;DHT22;10145;49.152;9.282;2023-07-31T04:34:42;15.70;99.90
19968;DHT22;10145;49.152;9.282;2023-07-31T04:37:07;15.80;99.90
19968;DHT22;10145;49.152;9.282;2023-07-31T04:39:33;15.90;99.90
19968;DHT22;10145;49.152;9.282;2023-07-31T04:41:59;15.90;99.90
19968;DHT22;10145;49.152;9.282;2023-07-31T04:44:24;15.90;99.90
19968;DHT22;10145;49.152;9.282;2023-07-31T04:46:50;16.00;99.90
19968;DHT22;10145;49.152;9.282;2023-07-31T04:49:15;16.00;99.90
19968;DHT22;10145;49.152;9.282;2023-07-31T04:51:41;16.10;99.90
19968;DHT22;10145;49.152;9.282;2023-07-31T04:54:06;16.20;99.90
19968;DHT22;10145;49.152;9.282;2023-07-31T04:56:32;16.30;99.90
19968;DHT22;10145;49.152;9.282;2023-07-31T04:58:57;16.40;99.90
19968;DHT22;10145;49.152;9.282;2023-07-31T05:01:23;16.50;99.90
19968;DHT22;10145;49.152;9.282;2023-07-31T05:03:48;16.50;99.90
19968;DHT22;10145;49.152;9.282;2023-07-31T05:06:14;16.60;99.90
19968;DHT22;10145;49.152;9.282;2023-07-31T05:08:40;16.60;99.90
19968;DHT22;10145;49.152;9.282;2023-07-31T05:11:06;16.60;99.90
19968;DHT22;10145;49.152;9.282;2023-07-31T05:13:31;16.60;99.90
19968;DHT22;10145;49.152;9.282;2023-07-31T05:15:57;16.70;99.90
19968;DHT22;10145;49.152;9.282;2023-07-31T05:18:23;16.70;99.90
19968;DHT22;10145;49.152;9.282;2023-07-31T05:20:48;16.80;99.90
19968;DHT22;10145;49.152;9.282;2023-07-31T05:23:14;16.80;99.90
19968;DHT22;10145;49.152;9.282;2023-07-31T05:25:39;16.90;99.90
19968;DHT22;10145;49.152;9.282;2023-07-31T05:28:05;17.00;99.90
19968;DHT22;10145;49.152;9.282;2023-07-31T05:30:31;17.00;99.90
19968;DHT22;10145;49.152;9.282;2023-07-31T05:32:57;17.20;99.90
19968;DHT22;10145;49.152;9.282;2023-07-31T05:35:22;17.30;99.90
19968;DHT22;10145;49.152;9.282;2023-07-31T05:37:48;17.40;99.90
19968;DHT22;10145;49.152;9.282;2023-07-31T05:40:14;17.40;99.90
19968;DHT22;10145;49.152;9.282;2023-07-31T05:42:39;17.50;99.90
19968;DHT22;10145;49.152;9.282;2023-07-31T05:45:06;17.40;99.90
19968;DHT22;10145;49.152;9.282;2023-07-31T05:47:32;17.40;99.90
19968;DHT22;10145;49.152;9.282;2023-07-31T05:49:58;17.30;99.90
19968;DHT22;10145;49.152;9.282;2023-07-31T05:52:24;17.20;99.90
19968;DHT22;10145;49.152;9.282;2023-07-31T05:54:49;17.10;99.90
19968;DHT22;10145;49.152;9.282;2023-07-31T05:57:15;17.00;99.90
19968;DHT22;10145;49.152;9.282;2023-07-31T05:59:41;16.90;99.90
19968;DHT22;10145;49.152;9.282;2023-07-31T06:02:07;16.90;99.90
19968;DHT22;10145;49.152;9.282;2023-07-31T06:04:32;16.90;99.90
19968;DHT22;10145;49.152;9.282;2023-07-31T06:06:58;16.90;99.90
19968;DHT22;10145;49.152;9.282;2023-07-31T06:09:23;17.00;99.90
19968;DHT22;10145;49.152;9.282;2023-07-31T06:11:49;17.20;99.90
19968;DHT22;10145;49.152;9.282;2023-07-31T06:14:15;17.30;99.90
19968;DHT22;10145;49.152;9.282;2023-07-31T06:16:40;17.50;99.90
19968;DHT22;10145;49.152;9.282;2023-07-31T06:19:06;17.60;99.90
19968;DHT22;10145;49.152;9.282;2023-07-31T06:21:32;17.90;99.90
19968;DHT22;10145;49.152;9.282;2023-07-31T06:23:58;17.90;99.90
19968;DHT22;10145;49.152;9.282;2023-07-31T06:26:24;18.00;99.90
19968;DHT22;10145;49.152;9.282;2023-07-31T06:28:49;18.10;99.90
19968;DHT22;10145;49.152;9.282;2023-07-31T06:31:15;18.30;99.90
19968;DHT22;10145;49.152;9.282;2023-07-31T06:33:40;18.50;99.90
19968;DHT22;10145;49.152;9.282;2023-07-31T06:36:06;18.90;99.90
19968;DHT22;10145;49.152;9.282;2023-07-31T06:38:31;19.20;99.90
19968;DHT22;10145;49.152;9.282;2023-07-31T06:40:57;19.70;99.90
19968;DHT22;10145;49.152;9.282;2023-07-31T06:43:22;20.00;99.90
19968;DHT22;10145;49.152;9.282;2023-07-31T06:45:49;20.30;99.90
19968;DHT22;10145;49.152;9.282;2023-07-31T06:48:16;20.70;99.30
19968;DHT22;10145;49.152;9.282;2023-07-31T06:50:42;20.90;99.00
19968;DHT22;10145;49.152;9.282;2023-07-31T06:53:07;21.10;98.80
19968;DHT22;10145;49.152;9.282;2023-07-31T06:55:33;21.40;98.30
19968;DHT22;10145;49.152;9.282;2023-07-31T06:57:58;21.60;98.50
19968;DHT22;10145;49.152;9.282;2023-07-31T07:00:24;21.70;98.10
19968;DHT22;10145;49.152;9.282;2023-07-31T07:02:50;22.00;96.60
19968;DHT22;10145;49.152;9.282;2023-07-31T07:05:16;22.30;96.20
19968;DHT22;10145;49.152;9.282;2023-07-31T07:07:42;22.40;96.30
19968;DHT22;10145;49.152;9.282;2023-07-31T07:10:08;22.50;95.70
19968;DHT22;10145;49.152;9.282;2023-07-31T07:12:34;22.40;95.60
19968;DHT22;10145;49.152;9.282;2023-07-31T07:15:00;22.40;95.80
19968;DHT22;10145;49.152;9.282;2023-07-31T07:17:29;22.40;95.70
19968;DHT22;10145;49.152;9.282;2023-07-31T07:19:58;22.20;95.90
19968;DHT22;10145;49.152;9.282;2023-07-31T07:22:24;22.00;97.10
19968;DHT22;10145;49.152;9.282;2023-07-31T07:24:51;21.90;95.40
19968;DHT22;10145;49.152;9.282;2023-07-31T07:27:16;22.00;95.00
19968;DHT22;10145;49.152;9.282;2023-07-31T07:29:42;22.00;96.20
19968;DHT22;10145;49.152;9.282;2023-07-31T07:32:07;22.00;95.30
19968;DHT22;10145;49.152;9.282;2023-07-31T07:34:33;21.90;96.90
19968;DHT22;10145;49.152;9.282;2023-07-31T07:36:59;22.10;95.50
19968;DHT22;10145;49.152;9.282;2023-07-31T07:39:24;21.90;96.00
19968;DHT22;10145;49.152;9.282;2023-07-31T07:41:50;21.80;95.80
19968;DHT22;10145;49.152;9.282;2023-07-31T07:44:16;21.70;96.50
19968;DHT22;10145;49.152;9.282;2023-07-31T07:46:41;21.60;95.60
19968;DHT22;10145;49.152;9.282;2023-07-31T07:49:07;21.70;95.50
19968;DHT22;10145;49.152;9.282;2023-07-31T07:51:33;22.00;96.00
19968;DHT22;10145;49.152;9.282;2023-07-31T07:53:59;22.30;95.10
19968;DHT22;10145;49.152;9.282;2023-07-31T07:56:28;22.40;94.10
19968;DHT22;10145;49.152;9.282;2023-07-31T07:58:54;22.60;93.90
19968;DHT22;10145;49.152;9.282;2023-07-31T08:01:19;22.70;93.80
19968;DHT22;10145;49.152;9.282;2023-07-31T08:03:46;22.80;95.10
19968;DHT22;10145;49.152;9.282;2023-07-31T08:06:12;23.10;94.30
19968;DHT22;10145;49.152;9.282;2023-07-31T08:08:38;22.90;94.50
19968;DHT22;10145;49.152;9.282;2023-07-31T08:11:04;22.70;93.40
19968;DHT22;10145;49.152;9.282;2023-07-31T08:13:30;22.60;93.90
19968;DHT22;10145;49.152;9.282;2023-07-31T08:15:55;22.60;93.80
19968;DHT22;10145;49.152;9.282;2023-07-31T08:18:21;22.50;94.20
19968;DHT22;10145;49.152;9.282;2023-07-31T08:20:47;23.10;93.20
19968;DHT22;10145;49.152;9.282;2023-07-31T08:23:12;23.50;93.60
19968;DHT22;10145;49.152;9.282;2023-07-31T08:25:38;23.90;93.10
19968;DHT22;10145;49.152;9.282;2023-07-31T08:28:05;24.00;90.80
19968;DHT22;10145;49.152;9.282;2023-07-31T08:30:31;23.90;91.70
19968;DHT22;10145;49.152;9.282;2023-07-31T08:32:56;24.10;91.60
19968;DHT22;10145;49.152;9.282;2023-07-31T08:35:23;23.90;90.70
19968;DHT22;10145;49.152;9.282;2023-07-31T08:37:49;23.50;91.40
19968;DHT22;10145;49.152;9.282;2023-07-31T08:40:14;23.20;94.30
19968;DHT22;10145;49.152;9.282;2023-07-31T08:42:47;23.30;92.30
19968;DHT22;10145;49.152;9.282;2023-07-31T08:45:17;23.40;92.20
19968;DHT22;10145;49.152;9.282;2023-07-31T08:47:51;23.70;92.40
19968;DHT22;10145;49.152;9.282;2023-07-31T08:50:19;24.10;92.10
19968;DHT22;10145;49.152;9.282;2023-07-31T08:52:46;24.10;91.00
19968;DHT22;10145;49.152;9.282;2023-07-31T08:55:12;23.90;90.30
19968;DHT22;10145;49.152;9.282;2023-07-31T08:57:38;23.80;90.80
19968;DHT22;10145;49.152;9.282;2023-07-31T09:00:05;23.80;91.30
19968;DHT22;10145;49.152;9.282;2023-07-31T09:02:38;23.60;90.90
19968;DHT22;10145;49.152;9.282;2023-07-31T09:05:07;23.80;92.20
19968;DHT22;10145;49.152;9.282;2023-07-31T09:07:36;24.10;92.40
19968;DHT22;10145;49.152;9.282;2023-07-31T09:10:03;24.10;90.90
19968;DHT22;10145;49.152;9.282;2023-07-31T09:12:28;24.50;91.30
19968;DHT22;10145;49.152;9.282;2023-07-31T09:14:57;25.10;90.10
19968;DHT22;10145;49.152;9.282;2023-07-31T09:17:33;24.90;88.50
19968;DHT22;10145;49.152;9.282;2023-07-31T09:22:40;25.10;88.10
19968;DHT22;10145;49.152;9.282;2023-07-31T09:25:25;25.80;89.60
19968;DHT22;10145;49.152;9.282;2023-07-31T09:27:59;25.90;86.40
19968;DHT22;10145;49.152;9.282;2023-07-31T09:30:25;26.10;86.80
19968;DHT22;10145;49.152;9.282;2023-07-31T09:32:59;26.50;87.10
19968;DHT22;10145;49.152;9.282;2023-07-31T09:35:30;26.30;83.30
19968;DHT22;10145;49.152;9.282;2023-07-31T09:38:03;26.60;84.40
19968;DHT22;10145;49.152;9.282;2023-07-31T09:40:38;26.90;85.50
19968;DHT22;10145;49.152;9.282;2023-07-31T09:43:05;26.40;81.70
19968;DHT22;10145;49.152;9.282;2023-07-31T09:45:37;26.10;85.40
19968;DHT22;10145;49.152;9.282;2023-07-31T09:48:06;25.80;85.30
19968;DHT22;10145;49.152;9.282;2023-07-31T09:50:32;25.80;84.80
19968;DHT22;10145;49.152;9.282;2023-07-31T09:52:57;25.80;83.60
19968;DHT22;10145;49.152;9.282;2023-07-31T09:55:24;25.50;86.10
19968;DHT22;10145;49.152;9.282;2023-07-31T09:57:49;25.60;87.40
19968;DHT22;10145;49.152;9.282;2023-07-31T10:00:17;26.00;87.10
19968;DHT22;10145;49.152;9.282;2023-07-31T10:02:46;26.60;87.90
19968;DHT22;10145;49.152;9.282;2023-07-31T10:05:15;27.40;82.00
19968;DHT22;10145;49.152;9.282;2023-07-31T10:07:47;27.50;82.60
19968;DHT22;10145;49.152;9.282;2023-07-31T10:10:16;27.30;81.00
19968;DHT22;10145;49.152;9.282;2023-07-31T10:12:42;27.10;82.50
19968;DHT22;10145;49.152;9.282;2023-07-31T10:15:09;26.60;82.80
19968;DHT22;10145;49.152;9.282;2023-07-31T10:17:35;26.60;86.10
19968;DHT22;10145;49.152;9.282;2023-07-31T10:20:02;26.50;81.40
19968;DHT22;10145;49.152;9.282;2023-07-31T10:22:31;26.50;83.50
19968;DHT22;10145;49.152;9.282;2023-07-31T10:24:58;26.40;82.90
19968;DHT22;10145;49.152;9.282;2023-07-31T10:27:24;26.30;85.40
19968;DHT22;10145;49.152;9.282;2023-07-31T10:29:50;26.50;82.70
19968;DHT22;10145;49.152;9.282;2023-07-31T10:32:17;26.50;87.10
19968;DHT22;10145;49.152;9.282;2023-07-31T10:34:44;26.50;80.20
19968;DHT22;10145;49.152;9.282;2023-07-31T10:37:26;26.20;82.40
19968;DHT22;10145;49.152;9.282;2023-07-31T10:40:03;25.90;81.10
19968;DHT22;10145;49.152;9.282;2023-07-31T10:42:37;25.80;82.00
19968;DHT22;10145;49.152;9.282;2023-07-31T10:45:08;26.20;87.20
19968;DHT22;10145;49.152;9.282;2023-07-31T10:47:44;26.70;81.00
19968;DHT22;10145;49.152;9.282;2023-07-31T10:52:38;27.00;77.30
19968;DHT22;10145;49.152;9.282;2023-07-31T10:58:08;27.20;79.00
19968;DHT22;10145;49.152;9.282;2023-07-31T11:00:37;27.00;77.20
19968;DHT22;10145;49.152;9.282;2023-07-31T11:03:11;26.90;78.20
19968;DHT22;10145;49.152;9.282;2023-07-31T11:08:24;26.90;79.70
19968;DHT22;10145;49.152;9.282;2023-07-31T11:13:53;26.80;80.60
19968;DHT22;10145;49.152;9.282;2023-07-31T11:16:23;26.60;78.60
19968;DHT22;10145;49.152;9.282;2023-07-31T11:18:50;26.40;82.00
19968;DHT22;10145;49.152;9.282;2023-07-31T11:21:21;26.30;81.30
19968;DHT22;10145;49.152;9.282;2023-07-31T11:23:53;26.50;80.30
19968;DHT22;10145;49.152;9.282;2023-07-31T11:26:19;26.50;77.30
19968;DHT22;10145;49.152;9.282;2023-07-31T11:28:48;26.80;81.00
19968;DHT22;10145;49.152;9.282;2023-07-31T11:31:14;27.10;77.50
19968;DHT22;10145;49.152;9.282;2023-07-31T11:33:40;27.40;76.20
19968;DHT22;10145;49.152;9.282;2023-07-31T11:36:14;27.00;75.90
19968;DHT22;10145;49.152;9.282;2023-07-31T11:38:40;27.00;77.80
19968;DHT22;10145;49.152;9.282;2023-07-31T11:41:06;27.10;76.90
19968;DHT22;10145;49.152;9.282;2023-07-31T11:43:32;26.90;76.90
19968;DHT22;10145;49.152;9.282;2023-07-31T11:45:59;27.00;77.50
19968;DHT22;10145;49.152;9.282;2023-07-31T11:48:33;27.50;77.60
19968;DHT22;10145;49.152;9.282;2023-07-31T11:51:06;27.60;76.30
19968;DHT22;10145;49.152;9.282;2023-07-31T11:53:40;26.90;75.80
19968;DHT22;10145;49.152;9.282;2023-07-31T11:56:07;26.30;77.40
19968;DHT22;10145;49.152;9.282;2023-07-31T11:58:35;26.00;76.70
19968;DHT22;10145;49.152;9.282;2023-07-31T12:01:01;26.00;79.10
19968;DHT22;10145;49.152;9.282;2023-07-31T12:03:27;26.20;80.40
19968;DHT22;10145;49.152;9.282;2023-07-31T12:05:53;26.90;78.00
19968;DHT22;10145;49.152;9.282;2023-07-31T12:08:21;27.50;75.10
19968;DHT22;10145;49.152;9.282;2023-07-31T12:10:50;27.60;77.90
19968;DHT22;10145;49.152;9.282;2023-07-31T12:13:24;27.70;74.30
19968;DHT22;10145;49.152;9.282;2023-07-31T12:16:00;28.10;74.50
19968;DHT22;10145;49.152;9.282;2023-07-31T12:18:29;28.30;78.40
19968;DHT22;10145;49.152;9.282;2023-07-31T12:21:00;28.30;75.90
19968;DHT22;10145;49.152;9.282;2023-07-31T12:23:31;28.10;73.30
19968;DHT22;10145;49.152;9.282;2023-07-31T12:26:04;27.80;75.30
19968;DHT22;10145;49.152;9.282;2023-07-31T12:28:29;27.40;73.90
19968;DHT22;10145;49.152;9.282;2023-07-31T12:31:00;26.70;74.80
19968;DHT22;10145;49.152;9.282;2023-07-31T12:33:31;26.20;76.10
19968;DHT22;10145;49.152;9.282;2023-07-31T12:35:57;26.00;77.70
19968;DHT22;10145;49.152;9.282;2023-07-31T12:38:23;26.10;80.00
19968;DHT22;10145;49.152;9.282;2023-07-31T12:40:48;26.60;81.70
19968;DHT22;10145;49.152;9.282;2023-07-31T12:43:14;27.20;77.80
19968;DHT22;10145;49.152;9.282;2023-07-31T12:45:39;27.80;76.80
19968;DHT22;10145;49.152;9.282;2023-07-31T12:48:05;28.00;74.70
19968;DHT22;10145;49.152;9.282;2023-07-31T12:50:31;28.00;72.40
19968;DHT22;10145;49.152;9.282;2023-07-31T12:52:57;27.70;74.40
19968;DHT22;10145;49.152;9.282;2023-07-31T12:55:23;27.20;74.20
19968;DHT22;10145;49.152;9.282;2023-07-31T12:57:49;26.70;76.60
19968;DHT22;10145;49.152;9.282;2023-07-31T13:00:17;26.30;79.10
19968;DHT22;10145;49.152;9.282;2023-07-31T13:02:43;26.30;80.30
19968;DHT22;10145;49.152;9.282;2023-07-31T13:05:09;26.70;78.60
19968;DHT22;10145;49.152;9.282;2023-07-31T13:07:34;27.10;78.40
19968;DHT22;10145;49.152;9.282;2023-07-31T13:10:00;27.40;77.20
19968;DHT22;10145;49.152;9.282;2023-07-31T13:12:25;27.60;76.50
19968;DHT22;10145;49.152;9.282;2023-07-31T13:14:51;27.60;77.10
19968;DHT22;10145;49.152;9.282;2023-07-31T13:17:17;27.40;77.10
19968;DHT22;10145;49.152;9.282;2023-07-31T13:19:43;27.50;75.90
19968;DHT22;10145;49.152;9.282;2023-07-31T13:22:08;27.70;75.20
19968;DHT22;10145;49.152;9.282;2023-07-31T13:24:34;27.40;77.90
19968;DHT22;10145;49.152;9.282;2023-07-31T13:26:59;27.10;76.30
19968;DHT22;10145;49.152;9.282;2023-07-31T13:29:25;27.00;79.40
19968;DHT22;10145;49.152;9.282;2023-07-31T13:31:51;27.00;80.10
19968;DHT22;10145;49.152;9.282;2023-07-31T13:34:17;27.10;79.10
19968;DHT22;10145;49.152;9.282;2023-07-31T13:36:43;27.50;77.50
19968;DHT22;10145;49.152;9.282;2023-07-31T13:39:08;27.60;77.70
19968;DHT22;10145;49.152;9.282;2023-07-31T13:41:34;27.40;74.20
19968;DHT22;10145;49.152;9.282;2023-07-31T13:43:59;26.90;79.90
19968;DHT22;10145;49.152;9.282;2023-07-31T13:46:25;26.70;77.10
19968;DHT22;10145;49.152;9.282;2023-07-31T13:48:51;26.40;77.60
19968;DHT22;10145;49.152;9.282;2023-07-31T13:51:20;26.30;76.60
19968;DHT22;10145;49.152;9.282;2023-07-31T13:53:45;26.00;79.00
19968;DHT22;10145;49.152;9.282;2023-07-31T13:56:11;26.10;79.30
19968;DHT22;10145;49.152;9.282;2023-07-31T13:58:36;26.10;78.30
19968;DHT22;10145;49.152;9.282;2023-07-31T14:01:02;26.50;77.60
19968;DHT22;10145;49.152;9.282;2023-07-31T14:03:28;26.80;79.20
19968;DHT22;10145;49.152;9.282;2023-07-31T14:05:55;27.00;77.80
19968;DHT22;10145;49.152;9.282;2023-07-31T14:08:21;27.40;76.90
19968;DHT22;10145;49.152;9.282;2023-07-31T14:10:46;27.20;75.90
19968;DHT22;10145;49.152;9.282;2023-07-31T14:13:12;27.20;78.20
19968;DHT22;10145;49.152;9.282;2023-07-31T14:15:41;26.90;79.10
19968;DHT22;10145;49.152;9.282;2023-07-31T14:18:07;26.80;77.80
19968;DHT22;10145;49.152;9.282;2023-07-31T14:20:32;26.60;79.30
19968;DHT22;10145;49.152;9.282;2023-07-31T14:22:58;26.40;77.60
19968;DHT22;10145;49.152;9.282;2023-07-31T14:25:24;26.20;79.20
19968;DHT22;10145;49.152;9.282;2023-07-31T14:27:50;26.20;80.10
19968;DHT22;10145;49.152;9.282;2023-07-31T14:30:15;26.10;78.80
19968;DHT22;10145;49.152;9.282;2023-07-31T14:32:41;25.80;78.50
19968;DHT22;10145;49.152;9.282;2023-07-31T14:35:07;25.50;79.80
19968;DHT22;10145;49.152;9.282;2023-07-31T14:37:44;25.20;84.90
19968;DHT22;10145;49.152;9.282;2023-07-31T14:40:11;24.90;85.60
19968;DHT22;10145;49.152;9.282;2023-07-31T14:42:37;24.60;83.30
19968;DHT22;10145;49.152;9.282;2023-07-31T14:45:07;24.40;85.70
19968;DHT22;10145;49.152;9.282;2023-07-31T14:47:33;24.20;84.60
19968;DHT22;10145;49.152;9.282;2023-07-31T14:49:59;24.00;85.70
19968;DHT22;10145;49.152;9.282;2023-07-31T14:52:25;23.80;86.10
19968;DHT22;10145;49.152;9.282;2023-07-31T14:54:51;23.70;85.30
19968;DHT22;10145;49.152;9.282;2023-07-31T14:57:16;23.70;88.20
19968;DHT22;10145;49.152;9.282;2023-07-31T14:59:42;23.80;87.20
19968;DHT22;10145;49.152;9.282;2023-07-31T15:02:09;23.70;88.40
19968;DHT22;10145;49.152;9.282;2023-07-31T15:04:35;23.80;86.40
19968;DHT22;10145;49.152;9.282;2023-07-31T15:07:01;24.00;85.90
19968;DHT22;10145;49.152;9.282;2023-07-31T15:09:27;24.00;85.10
19968;DHT22;10145;49.152;9.282;2023-07-31T15:11:52;24.00;85.50
19968;DHT22;10145;49.152;9.282;2023-07-31T15:14:18;24.10;85.80
19968;DHT22;10145;49.152;9.282;2023-07-31T15:16:43;24.10;87.10
19968;DHT22;10145;49.152;9.282;2023-07-31T15:19:09;24.30;84.80
19968;DHT22;10145;49.152;9.282;2023-07-31T15:21:39;24.40;85.60
19968;DHT22;10145;49.152;9.282;2023-07-31T15:24:04;24.80;86.10
19968;DHT22;10145;49.152;9.282;2023-07-31T15:26:30;25.10;83.90
19968;DHT22;10145;49.152;9.282;2023-07-31T15:29:00;25.60;85.00
19968;DHT22;10145;49.152;9.282;2023-07-31T15:31:27;25.80;82.60
19968;DHT22;10145;49.152;9.282;2023-07-31T15:33:52;26.30;81.20
19968;DHT22;10145;49.152;9.282;2023-07-31T15:36:18;27.40;80.80
19968;DHT22;10145;49.152;9.282;2023-07-31T15:38:43;28.30;75.70
19968;DHT22;10145;49.152;9.282;2023-07-31T15:41:09;29.30;74.70
19968;DHT22;10145;49.152;9.282;2023-07-31T15:43:34;29.50;75.00
19968;DHT22;10145;49.152;9.282;2023-07-31T15:46:00;28.50;73.10